createdAt,value
2022-11-08T00:02:08.233Z,93.55
2022-11-08T00:04:34.811Z,93.44
2022-11-08T00:07:19.589Z,93.58
2022-11-08T00:10:04.604Z,93.58
2022-11-08T00:12:49.270Z,93.94
2022-11-08T00:15:15.820Z,94.14
2022-11-08T00:17:42.252Z,93.74
2022-11-08T00:20:09.563Z,93.81
2022-11-08T00:22:36.024Z,93.87
2022-11-08T00:25:02.508Z,94.11
2022-11-08T00:27:29.053Z,93.92
2022-11-08T00:29:55.502Z,94.35
2022-11-08T00:32:24.165Z,94.15
2022-11-08T00:34:51.600Z,93.47
2022-11-08T00:37:20.244Z,93.67
2022-11-08T00:39:47.378Z,94.17
2022-11-08T00:42:14.202Z,94.10
2022-11-08T00:44:40.772Z,93.68
2022-11-08T00:47:07.210Z,94.65
2022-11-08T00:49:33.941Z,95.07
2022-11-08T00:52:00.451Z,95.12
2022-11-08T00:54:26.899Z,94.72
2022-11-08T00:56:53.366Z,94.66
2022-11-08T00:59:20.279Z,94.64
2022-11-08T01:01:47.412Z,94.55
2022-11-08T01:04:16.351Z,94.42
2022-11-08T01:06:43.240Z,94.51
2022-11-08T01:09:09.775Z,94.50
2022-11-08T01:11:37.613Z,94.45
2022-11-08T01:14:04.092Z,94.44
2022-11-08T01:16:33.548Z,94.20
2022-11-08T01:19:00.356Z,94.40
2022-11-08T01:21:27.426Z,94.49
2022-11-08T01:23:54.531Z,94.33
2022-11-08T01:26:26.645Z,94.54
2022-11-08T01:28:54.367Z,94.42
2022-11-08T01:31:23.287Z,94.78
2022-11-08T01:33:51.782Z,94.89
2022-11-08T01:36:21.840Z,94.29
2022-11-08T01:38:48.642Z,93.98
2022-11-08T01:41:16.718Z,94.81
2022-11-08T01:43:50.268Z,95.55
2022-11-08T01:46:19.564Z,95.14
2022-11-08T01:48:59.351Z,95.16
2022-11-08T01:51:41.581Z,95.18
2022-11-08T01:54:15.746Z,95.14
2022-11-08T01:56:42.445Z,95.20
2022-11-08T01:59:11.397Z,94.62
2022-11-08T02:01:38.425Z,95.11
2022-11-08T02:04:05.766Z,94.99
2022-11-08T02:06:36.046Z,95.20
2022-11-08T02:09:05.043Z,95.27
2022-11-08T02:11:32.681Z,95.90
2022-11-08T02:13:59.404Z,96.07
2022-11-08T02:16:25.844Z,95.18
2022-11-08T02:18:52.381Z,95.45
2022-11-08T02:21:46.371Z,95.83
2022-11-08T02:24:13.338Z,95.64
2022-11-08T02:26:40.726Z,94.88
2022-11-08T02:29:23.920Z,95.74
2022-11-08T02:31:50.463Z,95.03
2022-11-08T02:34:17.091Z,94.95
2022-11-08T02:36:46.892Z,94.71
2022-11-08T02:39:13.285Z,94.90
2022-11-08T02:41:39.679Z,94.59
2022-11-08T02:44:06.183Z,94.39
2022-11-08T02:46:32.812Z,94.29
2022-11-08T02:48:59.216Z,95.62
2022-11-08T02:51:25.620Z,95.27
2022-11-08T02:53:52.034Z,94.94
2022-11-08T02:56:18.440Z,94.70
2022-11-08T02:58:44.815Z,94.86
2022-11-08T03:01:11.334Z,94.96
2022-11-08T03:03:37.826Z,94.81
2022-11-08T03:06:04.274Z,94.04
2022-11-08T03:08:30.720Z,94.18
2022-11-08T03:10:59.931Z,94.05
2022-11-08T03:13:26.364Z,93.96
2022-11-08T03:15:52.798Z,94.17
2022-11-08T03:18:19.516Z,94.80
2022-11-08T03:20:46.118Z,94.43
2022-11-08T03:23:12.577Z,94.95
2022-11-08T03:25:39.045Z,95.19
2022-11-08T03:28:08.055Z,95.16
2022-11-08T03:30:35.412Z,95.57
2022-11-08T03:33:01.883Z,95.58
2022-11-08T03:35:28.687Z,95.78
2022-11-08T03:37:56.846Z,95.39
2022-11-08T03:40:24.258Z,95.95
2022-11-08T03:42:50.674Z,95.85
2022-11-08T03:45:17.363Z,95.91
2022-11-08T03:47:45.652Z,96.02
2022-11-08T03:50:14.276Z,95.93
2022-11-08T03:52:45.976Z,96.01
2022-11-08T03:55:12.862Z,95.87
2022-11-08T03:57:41.984Z,96.18
2022-11-08T04:00:10.674Z,96.35
2022-11-08T04:02:37.279Z,96.51
2022-11-08T04:05:04.677Z,96.91
2022-11-08T04:07:31.108Z,96.74
2022-11-08T04:09:57.553Z,95.95
2022-11-08T04:12:42.757Z,95.91
2022-11-08T04:15:16.307Z,96.42
2022-11-08T04:18:02.959Z,95.87
2022-11-08T04:20:48.188Z,95.82
2022-11-08T04:23:16.334Z,96.63
2022-11-08T04:25:43.356Z,96.04
2022-11-08T04:28:10.395Z,95.54
2022-11-08T04:30:37.212Z,95.89
2022-11-08T04:33:05.156Z,95.82
2022-11-08T04:35:31.884Z,95.74
2022-11-08T04:38:02.656Z,95.28
2022-11-08T04:40:31.125Z,95.79
2022-11-08T04:42:57.563Z,95.44
2022-11-08T04:45:23.969Z,96.06
2022-11-08T04:47:50.402Z,95.79
2022-11-08T04:50:16.912Z,96.50
2022-11-08T04:52:43.297Z,96.53
2022-11-08T04:55:09.843Z,96.07
2022-11-08T04:57:36.236Z,96.15
2022-11-08T05:00:02.945Z,96.86
2022-11-08T05:02:29.509Z,96.41
2022-11-08T05:04:56.095Z,96.60
2022-11-08T05:07:22.512Z,97.08
2022-11-08T05:09:48.898Z,96.69
2022-11-08T05:12:15.363Z,97.04
2022-11-08T05:14:41.772Z,97.37
2022-11-08T05:17:08.226Z,96.06
2022-11-08T05:19:53.173Z,96.59
2022-11-08T05:22:37.935Z,95.79
2022-11-08T05:25:04.724Z,96.32
2022-11-08T05:27:31.178Z,96.04
2022-11-08T05:29:57.580Z,95.78
2022-11-08T05:32:24.027Z,95.38
2022-11-08T05:34:50.427Z,95.63
2022-11-08T05:37:16.977Z,95.45
2022-11-08T05:39:43.436Z,94.98
2022-11-08T05:42:10.034Z,94.73
2022-11-08T05:44:36.587Z,95.21
2022-11-08T05:47:03.249Z,95.15
2022-11-08T05:49:29.644Z,94.88
2022-11-08T05:51:56.334Z,94.81
2022-11-08T05:54:22.740Z,95.96
2022-11-08T05:56:49.187Z,94.82
2022-11-08T05:59:15.612Z,94.94
2022-11-08T06:01:42.205Z,94.77
2022-11-08T06:04:08.642Z,95.50
2022-11-08T06:06:35.141Z,94.92
2022-11-08T06:09:01.538Z,94.79
2022-11-08T06:11:28.498Z,95.13
2022-11-08T06:13:55.615Z,95.30
2022-11-08T06:16:23.841Z,95.08
2022-11-08T06:18:50.479Z,94.99
2022-11-08T06:21:19.142Z,95.49
2022-11-08T06:23:46.113Z,95.24
2022-11-08T06:26:12.982Z,95.24
2022-11-08T06:28:39.571Z,94.78
2022-11-08T06:31:06.018Z,93.98
2022-11-08T06:33:32.584Z,94.45
2022-11-08T06:35:59.014Z,93.92
2022-11-08T06:38:25.682Z,94.45
2022-11-08T06:40:52.130Z,93.89
2022-11-08T06:43:20.255Z,93.69
2022-11-08T06:45:47.238Z,94.85
2022-11-08T06:48:13.748Z,95.18
2022-11-08T06:50:41.831Z,94.34
2022-11-08T06:53:11.837Z,93.73
2022-11-08T06:55:38.314Z,93.51
2022-11-08T06:58:05.038Z,94.25
2022-11-08T07:00:32.100Z,92.80
2022-11-08T07:03:00.940Z,92.35
2022-11-08T07:05:28.712Z,93.20
2022-11-08T07:07:57.967Z,93.18
2022-11-08T07:10:27.393Z,92.33
2022-11-08T07:13:00.232Z,92.04
2022-11-08T07:15:26.815Z,92.12
2022-11-08T07:17:53.310Z,92.08
2022-11-08T07:20:19.759Z,92.14
2022-11-08T07:22:46.219Z,92.10
2022-11-08T07:25:12.646Z,91.77
2022-11-08T07:27:39.074Z,91.33
2022-11-08T07:30:06.109Z,91.64
2022-11-08T07:32:32.518Z,92.54
2022-11-08T07:34:58.928Z,91.88
2022-11-08T07:37:25.334Z,91.54
2022-11-08T07:39:51.739Z,92.25
2022-11-08T07:42:18.129Z,91.90
2022-11-08T07:44:44.565Z,91.96
2022-11-08T07:47:10.958Z,92.35
2022-11-08T07:49:37.348Z,92.05
2022-11-08T07:52:03.956Z,92.02
2022-11-08T07:54:30.360Z,90.74
2022-11-08T07:56:56.771Z,91.57
2022-11-08T07:59:23.222Z,90.55
2022-11-08T08:01:49.784Z,90.23
2022-11-08T08:04:16.213Z,91.18
2022-11-08T08:06:42.621Z,90.07
2022-11-08T08:09:09.171Z,89.52
2022-11-08T08:11:35.750Z,88.61
2022-11-08T08:14:02.263Z,88.20
2022-11-08T08:16:28.675Z,87.69
2022-11-08T08:18:56.627Z,87.40
2022-11-08T08:21:23.499Z,86.63
2022-11-08T08:23:51.340Z,86.88
2022-11-08T08:26:17.747Z,86.63
2022-11-08T08:28:44.136Z,86.72
2022-11-08T08:31:10.544Z,86.55
2022-11-08T08:33:38.492Z,86.46
2022-11-08T08:36:05.382Z,86.47
2022-11-08T08:38:33.532Z,86.50
2022-11-08T08:41:01.228Z,86.14
2022-11-08T08:43:28.970Z,86.46
2022-11-08T08:45:59.857Z,86.69
2022-11-08T08:48:26.582Z,87.35
2022-11-08T08:50:53.023Z,86.41
2022-11-08T08:53:19.923Z,86.67
2022-11-08T08:55:52.392Z,86.80
2022-11-08T08:58:20.920Z,86.44
2022-11-08T09:03:34.685Z,85.03
2022-11-08T09:06:01.966Z,85.96
2022-11-08T09:08:29.392Z,85.56
2022-11-08T09:11:02.666Z,85.33
2022-11-08T09:13:30.982Z,85.00
2022-11-08T09:15:58.733Z,85.30
2022-11-08T09:18:25.202Z,84.45
2022-11-08T09:20:58.442Z,85.26
2022-11-08T09:23:25.232Z,84.98
2022-11-08T09:26:05.851Z,84.95
2022-11-08T09:28:34.269Z,84.68
2022-11-08T09:31:05.487Z,84.46
2022-11-08T09:33:32.184Z,84.54
2022-11-08T09:36:00.545Z,84.23
2022-11-08T09:38:27.097Z,84.15
2022-11-08T09:41:08.590Z,84.42
2022-11-08T09:43:47.546Z,83.83
2022-11-08T09:46:31.416Z,83.77
2022-11-08T09:49:01.355Z,83.86
2022-11-08T09:51:31.580Z,83.06
2022-11-08T09:54:03.507Z,83.11
2022-11-08T09:56:32.889Z,82.60
2022-11-08T09:59:38.112Z,82.47
2022-11-08T10:02:16.894Z,82.44
2022-11-08T10:04:49.125Z,82.02
2022-11-08T10:07:41.488Z,81.69
2022-11-08T10:10:37.829Z,82.06
2022-11-08T10:13:32.073Z,81.95
2022-11-08T10:16:16.904Z,81.60
2022-11-08T10:18:43.287Z,81.38
2022-11-08T10:21:40.831Z,80.90
2022-11-08T10:24:25.243Z,80.47
2022-11-08T10:26:54.824Z,80.10
2022-11-08T10:29:23.482Z,80.96
2022-11-08T10:32:01.332Z,79.80
2022-11-08T10:34:34.805Z,79.59
2022-11-08T10:37:04.152Z,80.17
2022-11-08T10:39:38.114Z,79.92
2022-11-08T10:42:15.439Z,79.11
2022-11-08T10:44:42.734Z,78.88
2022-11-08T10:47:24.572Z,77.63
2022-11-08T10:49:52.306Z,76.29
2022-11-08T10:52:27.843Z,76.04
2022-11-08T10:54:56.001Z,75.90
2022-11-08T10:57:31.301Z,75.61
2022-11-08T11:00:16.439Z,75.25
2022-11-08T11:02:43.425Z,75.78
2022-11-08T11:05:15.872Z,75.22
2022-11-08T11:07:46.691Z,75.79
2022-11-08T11:10:27.366Z,75.00
2022-11-08T11:13:10.876Z,76.16
2022-11-08T11:15:58.368Z,75.57
2022-11-08T11:18:45.264Z,74.09
2022-11-08T11:21:16.602Z,71.13
2022-11-08T11:23:46.563Z,68.52
2022-11-08T11:26:34.224Z,67.33
2022-11-08T11:29:09.430Z,67.93
2022-11-08T11:31:38.797Z,68.77
2022-11-08T11:34:17.413Z,69.52
2022-11-08T11:36:54.388Z,69.72
2022-11-08T11:39:39.413Z,69.88
2022-11-08T11:42:44.348Z,70.06
2022-11-08T11:45:18.236Z,69.95
2022-11-08T11:47:50.375Z,70.04
2022-11-08T11:50:39.866Z,70.21
2022-11-08T11:53:33.013Z,70.47
2022-11-08T11:56:38.212Z,70.17
2022-11-08T11:59:34.440Z,69.73
2022-11-08T12:02:39.729Z,68.75
2022-11-08T12:05:06.106Z,68.00
2022-11-08T12:07:38.199Z,65.85
2022-11-08T12:10:13.498Z,64.11
2022-11-08T12:12:51.826Z,62.25
2022-11-08T12:15:54.286Z,60.09
2022-11-08T12:18:42.282Z,57.61
2022-11-08T12:21:09.858Z,55.82
2022-11-08T12:24:03.368Z,54.36
2022-11-08T12:26:56.370Z,54.18
2022-11-08T12:29:37.730Z,52.97
2022-11-08T12:32:10.166Z,52.87
2022-11-08T12:34:54.103Z,52.92
2022-11-08T12:37:52.307Z,54.03
2022-11-08T12:40:24.558Z,53.63
2022-11-08T12:43:17.085Z,52.87
2022-11-08T12:46:16.487Z,53.69
2022-11-08T12:49:04.077Z,53.49
2022-11-08T12:51:33.495Z,52.53
2022-11-08T12:54:15.267Z,53.75
2022-11-08T12:56:45.438Z,52.96
2022-11-08T12:59:29.203Z,53.38
2022-11-08T13:01:56.811Z,53.69
2022-11-08T13:04:46.649Z,53.29
2022-11-08T13:07:34.909Z,53.84
2022-11-08T13:10:23.048Z,53.87
2022-11-08T13:13:14.680Z,53.87
2022-11-08T13:16:06.830Z,55.20
2022-11-08T13:18:36.266Z,55.81
2022-11-08T13:21:25.580Z,56.87
2022-11-08T13:23:53.214Z,57.87
2022-11-08T13:26:24.298Z,57.95
2022-11-08T13:28:51.649Z,58.56
2022-11-08T13:31:36.517Z,58.95
2022-11-08T13:34:28.362Z,59.28
2022-11-08T13:37:04.737Z,59.28
2022-11-08T13:39:49.290Z,60.22
2022-11-08T13:42:15.670Z,60.75
2022-11-08T13:44:56.698Z,61.66
2022-11-08T13:47:32.393Z,61.42
2022-11-08T13:50:29.955Z,62.80
2022-11-08T13:53:24.073Z,62.49
2022-11-08T13:55:53.449Z,62.16
2022-11-08T13:58:29.171Z,62.39
2022-11-08T14:00:56.746Z,62.42
2022-11-08T14:03:35.078Z,62.49
2022-11-08T14:06:06.300Z,62.92
2022-11-08T14:08:58.392Z,63.59
2022-11-08T14:11:43.315Z,63.45
2022-11-08T14:14:24.833Z,64.03
2022-11-08T14:17:15.175Z,64.29
2022-11-08T14:19:45.763Z,64.47
2022-11-08T14:22:21.764Z,64.66
2022-11-08T14:24:51.119Z,65.03
2022-11-08T14:27:36.892Z,65.29
2022-11-08T14:30:05.744Z,65.60
2022-11-08T14:32:32.300Z,65.59
2022-11-08T14:35:22.369Z,65.02
2022-11-08T14:37:49.240Z,65.78
2022-11-08T14:40:28.208Z,65.88
2022-11-08T14:42:56.141Z,66.10
2022-11-08T14:45:27.334Z,66.33
2022-11-08T14:48:04.468Z,66.32
2022-11-08T14:50:34.032Z,66.57
2022-11-08T14:53:27.020Z,67.46
2022-11-08T14:56:18.349Z,67.49
2022-11-08T14:58:46.114Z,67.56
2022-11-08T15:01:14.243Z,67.81
2022-11-08T15:03:47.230Z,68.16
2022-11-08T15:06:14.442Z,68.15
2022-11-08T15:08:51.207Z,67.88
2022-11-08T15:11:30.698Z,68.33
2022-11-08T15:13:59.333Z,68.55
2022-11-08T15:16:26.439Z,68.54
2022-11-08T15:18:52.867Z,68.85
2022-11-08T15:21:32.038Z,69.49
2022-11-08T15:24:16.271Z,69.36
2022-11-08T15:27:06.617Z,69.47
2022-11-08T15:29:53.401Z,69.41
2022-11-08T15:32:21.998Z,68.65
2022-11-08T15:34:52.842Z,69.72
2022-11-08T15:37:36.025Z,69.45
2022-11-08T15:40:15.908Z,69.91
2022-11-08T15:42:47.924Z,69.67
2022-11-08T15:45:14.299Z,69.40
2022-11-08T15:47:46.066Z,69.47
2022-11-08T15:50:19.659Z,70.01
2022-11-08T15:52:51.498Z,70.30
2022-11-08T15:55:21.419Z,70.69
2022-11-08T15:57:49.323Z,71.07
2022-11-08T16:00:18.821Z,71.12
2022-11-08T16:02:45.614Z,71.35
2022-11-08T16:05:21.306Z,71.79
2022-11-08T16:07:47.799Z,71.32
2022-11-08T16:10:16.544Z,72.29
2022-11-08T16:12:45.115Z,72.70
2022-11-08T16:15:16.376Z,73.15
2022-11-08T16:17:42.818Z,73.77
2022-11-08T16:20:20.048Z,74.36
2022-11-08T16:22:46.464Z,74.14
2022-11-08T16:25:13.010Z,74.22
2022-11-08T16:27:39.592Z,74.85
2022-11-08T16:30:14.472Z,75.68
2022-11-08T16:32:41.625Z,75.66
2022-11-08T16:35:10.303Z,76.70
2022-11-08T16:37:38.191Z,77.64
2022-11-08T16:40:15.653Z,77.76
2022-11-08T16:42:42.094Z,78.02
2022-11-08T16:45:09.136Z,78.62
2022-11-08T16:47:35.936Z,78.83
2022-11-08T16:50:02.726Z,78.30
2022-11-08T16:52:29.125Z,77.85
2022-11-08T16:54:55.553Z,78.19
2022-11-08T16:57:34.138Z,77.65
2022-11-08T17:00:01.329Z,76.99
2022-11-08T17:02:33.049Z,76.93
2022-11-08T17:04:59.592Z,77.52
2022-11-08T17:07:27.614Z,76.93
2022-11-08T17:09:54.190Z,76.54
2022-11-08T17:12:21.285Z,77.21
2022-11-08T17:14:47.789Z,77.70
2022-11-08T17:17:15.170Z,77.52
2022-11-08T17:19:41.735Z,77.43
2022-11-08T17:22:08.130Z,76.24
2022-11-08T17:24:34.569Z,76.71
2022-11-08T17:27:02.101Z,76.36
2022-11-08T17:29:28.576Z,76.18
2022-11-08T17:31:54.999Z,75.68
2022-11-08T17:34:21.475Z,75.70
2022-11-08T17:36:48.107Z,75.77
2022-11-08T17:39:14.506Z,75.59
2022-11-08T17:41:41.024Z,75.88
2022-11-08T17:44:07.544Z,76.56
2022-11-08T17:46:33.973Z,76.77
2022-11-08T17:49:00.408Z,77.17
2022-11-08T17:51:26.845Z,77.62
2022-11-08T17:53:53.307Z,76.93
2022-11-08T17:56:19.721Z,76.84
2022-11-08T17:58:46.202Z,76.95
2022-11-08T18:01:12.820Z,77.62
2022-11-08T18:03:40.407Z,77.93
2022-11-08T18:06:12.202Z,77.34
2022-11-08T18:08:38.716Z,77.36
2022-11-08T18:11:05.717Z,77.83
2022-11-08T18:13:32.694Z,77.38
2022-11-08T18:16:13.257Z,77.54
2022-11-08T18:18:40.293Z,78.25
2022-11-08T18:21:08.025Z,78.51
2022-11-08T18:23:34.593Z,77.61
2022-11-08T18:26:01.143Z,77.84
2022-11-08T18:28:27.807Z,77.73
2022-11-08T18:30:54.317Z,77.92
2022-11-08T18:33:21.860Z,77.09
2022-11-08T18:35:48.494Z,77.45
2022-11-08T18:38:14.963Z,77.53
2022-11-08T18:40:43.974Z,76.92
2022-11-08T18:43:10.379Z,76.19
2022-11-08T18:45:36.823Z,76.44
2022-11-08T18:48:03.456Z,76.49
2022-11-08T18:50:29.889Z,75.67
2022-11-08T18:53:00.884Z,76.15
2022-11-08T18:55:31.299Z,76.34
2022-11-08T18:57:57.860Z,75.49
2022-11-08T19:00:24.404Z,75.30
2022-11-08T19:02:50.947Z,76.09
2022-11-08T19:05:17.435Z,75.77
2022-11-08T19:07:43.889Z,74.86
2022-11-08T19:10:10.590Z,75.38
2022-11-08T19:12:37.019Z,76.52
2022-11-08T19:15:03.738Z,76.50
2022-11-08T19:17:31.856Z,77.06
2022-11-08T19:19:58.310Z,76.62
2022-11-08T19:22:24.779Z,77.94
2022-11-08T19:24:51.191Z,78.26
2022-11-08T19:27:17.677Z,78.85
2022-11-08T19:29:44.084Z,78.49
2022-11-08T19:32:10.574Z,78.01
2022-11-08T19:34:37.185Z,77.96
2022-11-08T19:37:03.715Z,78.43
2022-11-08T19:39:30.274Z,78.42
2022-11-08T19:41:56.711Z,77.92
2022-11-08T19:44:23.377Z,78.31
2022-11-08T19:46:49.880Z,79.28
2022-11-08T19:49:16.334Z,78.50
2022-11-08T19:51:42.740Z,79.16
2022-11-08T19:54:12.877Z,78.66
2022-11-08T19:59:25.781Z,78.54
2022-11-08T20:01:52.286Z,78.87
2022-11-08T20:04:19.277Z,79.38
2022-11-08T20:06:46.421Z,78.95
2022-11-08T20:09:12.942Z,78.22
2022-11-08T20:11:41.011Z,78.22
2022-11-08T20:14:08.482Z,78.68
2022-11-08T20:16:41.862Z,79.30
2022-11-08T20:19:09.645Z,78.24
2022-11-08T20:21:38.728Z,77.66
2022-11-08T20:24:05.618Z,77.31
2022-11-08T20:26:32.378Z,78.23
2022-11-08T20:28:58.804Z,78.58
2022-11-08T20:31:25.700Z,77.89
2022-11-08T20:33:53.642Z,78.52
2022-11-08T20:36:22.344Z,78.28
2022-11-08T20:38:49.445Z,78.79
2022-11-08T20:41:17.533Z,78.75
2022-11-08T20:43:46.573Z,80.77
2022-11-08T20:46:18.875Z,80.14
2022-11-08T20:48:50.748Z,79.16
2022-11-08T20:51:19.113Z,79.10
2022-11-08T20:53:45.552Z,79.42
2022-11-08T20:56:18.195Z,79.26
2022-11-08T20:58:45.602Z,79.62
2022-11-08T21:01:14.471Z,79.80
2022-11-08T21:03:44.575Z,79.50
2022-11-08T21:06:13.667Z,79.93
2022-11-08T21:11:26.890Z,79.71
2022-11-08T21:13:53.283Z,80.37
2022-11-08T21:16:29.978Z,80.75
2022-11-08T21:18:57.576Z,80.54
2022-11-08T21:21:24.146Z,79.66
2022-11-08T21:23:51.046Z,79.29
2022-11-08T21:26:19.223Z,79.56
2022-11-08T21:28:46.672Z,79.46
2022-11-08T21:31:13.822Z,79.14
2022-11-08T21:33:40.298Z,78.92
2022-11-08T21:36:07.612Z,79.11
2022-11-08T21:38:38.354Z,78.48
2022-11-08T21:41:07.093Z,78.71
2022-11-08T21:43:38.657Z,78.68
2022-11-08T21:46:21.555Z,78.32
2022-11-08T21:48:53.693Z,78.01
2022-11-08T21:51:20.580Z,78.12
2022-11-08T21:53:53.881Z,77.98
2022-11-08T21:56:25.460Z,77.87
2022-11-08T21:58:52.431Z,78.43
2022-11-08T22:01:19.688Z,77.74
2022-11-08T22:03:46.385Z,78.32
2022-11-08T22:06:13.148Z,77.82
2022-11-08T22:08:39.590Z,77.96
2022-11-08T22:11:06.100Z,77.74
2022-11-08T22:13:32.580Z,77.83
2022-11-08T22:15:59.004Z,78.10
2022-11-08T22:18:43.577Z,78.08
2022-11-08T22:21:30.558Z,78.19
2022-11-08T22:23:56.987Z,78.52
2022-11-08T22:26:23.585Z,78.01
2022-11-08T22:28:50.047Z,78.19
2022-11-08T22:31:16.484Z,78.35
2022-11-08T22:33:42.931Z,78.43
2022-11-08T22:36:09.493Z,78.43
2022-11-08T22:38:36.199Z,78.54
2022-11-08T22:41:02.668Z,78.42
2022-11-08T22:43:29.076Z,78.66
2022-11-08T22:45:55.731Z,78.57
2022-11-08T22:48:22.806Z,78.06
2022-11-08T22:50:49.418Z,78.47
2022-11-08T22:53:16.120Z,78.61
2022-11-08T22:55:44.575Z,78.38
2022-11-08T22:58:11.840Z,78.41
2022-11-08T23:00:38.305Z,78.39
2022-11-08T23:03:04.765Z,78.20
2022-11-08T23:05:31.564Z,78.64
2022-11-08T23:07:57.988Z,78.06
2022-11-08T23:10:24.426Z,78.24
2022-11-08T23:13:09.747Z,78.79
2022-11-08T23:15:55.190Z,78.43
2022-11-08T23:18:22.884Z,78.83
2022-11-08T23:21:08.227Z,78.84
2022-11-08T23:24:00.282Z,79.83
2022-11-08T23:26:45.275Z,79.71
2022-11-08T23:29:30.633Z,79.85
2022-11-08T23:31:57.378Z,79.86
2022-11-08T23:34:23.807Z,79.73
2022-11-08T23:36:50.217Z,80.08
2022-11-08T23:39:16.601Z,80.59
2022-11-08T23:42:01.349Z,80.38
2022-11-08T23:44:27.817Z,80.14
2022-11-08T23:46:59.692Z,80.98
2022-11-08T23:49:26.752Z,80.77
2022-11-08T23:51:53.503Z,80.32
2022-11-08T23:54:20.066Z,79.56
2022-11-08T23:56:46.522Z,79.68
2022-11-08T23:59:14.436Z,79.99
